Cedar Hill, MO (63016)

2:39 PM CST on December 22, 2014 (GMT -0600)
St. Joseph Hill | Change Station
CLOSE
Current Station
Personal Weather Station
Location: Pacific, MO
Elevation: 555 ft
Nearby Weather Stations

Elev 555 ft 38.42 °N, 90.68 °W | Updated 10 minutes ago

Rain
Rain
47.8 °F
Feels Like 48 °F
N
0.0
Wind Variable Wind from SE
Gusts 3.0 mph

Today
High -- | Low -- °F
--% Chance of Precip.
Yesterday
High -- | Low -- °F
Precip. -- in
7:16 AM 4:46 PM
New Moon, 1% visible
Pressure 29.58 in
Visibility 10.0 miles
Clouds Overcast 900 ft
Windchill 48 °F
Dew Point 47 °F
Humidity 96%
Rainfall 0.32 in
Snow Depth Not available.
UV 1 out of 12
Pollen 3.00 out of 12
Air Quality Not available.
Flu Activity Not available.
METAR KSUS 221954Z 09003KT 10SM -RA OVC009 08/07 A2957 RMK AO2 SLP015 P0007 T00830072

More Conditions Fewer Conditions

Pressure 29.58 in
Visibility 10.0 miles
Clouds Overcast 900 ft
Windchill 48 °F
Dew Point 47 °F
Humidity 96%
Rainfall 0.32 in
Snow Depth Not available.
UV 1 out of 12
Pollen 3.00 out of 12
Air Quality Not available.
Flu Activity Not available.
METAR KSUS 221954Z 09003KT 10SM -RA OVC009 08/07 A2957 RMK AO2 SLP015 P0007 T00830072

More Conditions Fewer Conditions

10-Day Weather Forecast

Almanac

Astronomy

Dec. 22, 2014 Rise Set
Actual Time
Civil Twilight
Nautical Twilight
Astronomical Twilight
Moon
Length of Visible Light
Length of Day
Tomorrow will be .
, % of the Moon is Illuminated

Today's Extremes

State Highs State Lows

Community

WunderPhotos

Upload Photos

1,779,680 photos uploaded!

WunderBlogs® & News

Nearby

Air Quality

  Air Quality AQ Index Pollutant
Not available.

Snow Depth

Station Depth Elevation

Earthquake Activity

City Distance Mag. Time & Date
Minimum magnitude displayed is 2.5.

Coastal Water Temperatures

Place Temperature

Nearby Weather Stations